createdAt,value
2019-03-25T00:01:08.681Z,57.96
2019-03-25T00:06:05.684Z,57.68
2019-03-25T00:11:02.734Z,58.64
2019-03-25T00:15:59.852Z,58.87
2019-03-25T00:20:56.936Z,58.12
2019-03-25T00:25:53.923Z,58.36
2019-03-25T00:30:50.910Z,58.21
2019-03-25T00:35:47.996Z,58.06
2019-03-25T00:40:45.019Z,58.61
2019-03-25T00:45:42.015Z,57.98
2019-03-25T00:50:39.039Z,57.40
2019-03-25T00:55:36.094Z,57.72
2019-03-25T01:00:33.103Z,59.15
2019-03-25T01:05:30.176Z,58.66
2019-03-25T01:10:27.279Z,58.28
2019-03-25T01:15:24.269Z,59.05
2019-03-25T01:20:21.252Z,58.97
2019-03-25T01:25:18.476Z,57.92
2019-03-25T01:30:15.448Z,58.90
2019-03-25T01:35:12.657Z,59.12
2019-03-25T01:40:09.706Z,58.25
2019-03-25T01:45:07.321Z,59.14
2019-03-25T01:50:05.933Z,58.41
2019-03-25T01:55:12.939Z,58.63
2019-03-25T02:00:05.516Z,58.12
2019-03-25T02:05:02.675Z,59.34
2019-03-25T02:09:59.636Z,58.56
2019-03-25T02:14:58.318Z,58.72
2019-03-25T02:19:55.258Z,58.83
2019-03-25T02:24:52.264Z,58.78
2019-03-25T02:29:50.231Z,58.72
2019-03-25T02:34:47.358Z,58.95
2019-03-25T02:39:44.540Z,54.78
2019-03-25T02:44:41.522Z,50.75
2019-03-25T02:49:38.572Z,47.87
2019-03-25T02:54:35.650Z,48.02
2019-03-25T02:59:32.714Z,47.48
2019-03-25T03:04:29.820Z,47.56
2019-03-25T03:09:26.885Z,46.12
2019-03-25T03:14:23.994Z,45.97
2019-03-25T03:19:20.970Z,45.19
2019-03-25T03:24:18.107Z,46.47
2019-03-25T03:29:15.111Z,49.52
2019-03-25T03:34:14.030Z,53.06
2019-03-25T03:39:11.073Z,54.42
2019-03-25T03:44:08.378Z,55.57
2019-03-25T03:49:05.496Z,56.50
2019-03-25T03:54:02.599Z,58.00
2019-03-25T03:59:02.790Z,58.97
2019-03-25T04:03:59.884Z,60.45
2019-03-25T04:08:56.842Z,61.42
2019-03-25T04:13:53.950Z,61.11
2019-03-25T04:18:50.997Z,62.09
2019-03-25T04:23:48.124Z,61.14
2019-03-25T04:28:45.200Z,60.70
2019-03-25T04:33:42.243Z,60.78
2019-03-25T04:38:40.710Z,61.37
2019-03-25T04:43:37.779Z,61.88
2019-03-25T04:48:36.457Z,61.47
2019-03-25T04:53:33.662Z,62.54
2019-03-25T04:58:30.773Z,63.11
2019-03-25T05:03:27.805Z,64.03
2019-03-25T05:08:24.878Z,64.21
2019-03-25T05:13:22.039Z,64.45
2019-03-25T05:18:19.076Z,63.56
2019-03-25T05:23:16.083Z,63.38
2019-03-25T05:28:15.290Z,62.55
2019-03-25T05:33:12.406Z,62.08
2019-03-25T05:38:09.418Z,62.11
2019-03-25T05:43:06.588Z,61.64
2019-03-25T05:48:03.643Z,61.20
2019-03-25T05:53:01.165Z,61.31
2019-03-25T05:57:58.212Z,61.76
2019-03-25T06:02:55.333Z,61.39
2019-03-25T06:07:53.521Z,61.15
2019-03-25T06:12:56.802Z,61.19
2019-03-25T06:17:53.887Z,60.43
2019-03-25T06:22:53.165Z,60.76
2019-03-25T06:27:50.111Z,60.75
2019-03-25T06:32:49.056Z,61.47
2019-03-25T06:37:47.234Z,61.52
2019-03-25T06:42:44.299Z,58.75
2019-03-25T06:47:41.463Z,60.87
2019-03-25T06:52:38.615Z,61.24
2019-03-25T06:57:38.355Z,61.39
2019-03-25T07:02:34.586Z,60.94
2019-03-25T07:07:31.707Z,59.35
2019-03-25T07:12:35.049Z,57.17
2019-03-25T07:17:32.134Z,59.24
2019-03-25T07:22:30.760Z,56.06
2019-03-25T07:27:36.382Z,55.71
2019-03-25T07:32:26.779Z,54.89
2019-03-25T07:37:23.972Z,55.24
2019-03-25T07:42:21.077Z,57.36
2019-03-25T07:47:27.273Z,57.34
2019-03-25T07:52:24.992Z,53.59
2019-03-25T07:57:24.195Z,53.16
2019-03-25T08:02:24.530Z,51.18
2019-03-25T08:07:21.704Z,50.86
2019-03-25T08:12:18.807Z,51.55
2019-03-25T08:17:18.293Z,52.51
2019-03-25T08:22:15.411Z,51.42
2019-03-25T08:27:12.566Z,51.21
2019-03-25T08:32:09.697Z,50.56
2019-03-25T08:37:11.311Z,51.19
2019-03-25T08:48:03.197Z,50.44
2019-03-25T08:53:00.329Z,48.96
2019-03-25T08:57:57.741Z,50.53
2019-03-25T09:02:54.733Z,47.64
2019-03-25T09:07:51.830Z,47.13
2019-03-25T09:12:48.886Z,47.97
2019-03-25T09:17:46.033Z,52.38
2019-03-25T09:22:49.274Z,47.53
2019-03-25T09:34:18.396Z,48.12
2019-03-25T09:39:20.300Z,45.91
2019-03-25T09:44:22.263Z,45.41
2019-03-25T09:49:19.279Z,48.19
2019-03-25T09:54:31.193Z,45.43
2019-03-25T09:59:28.308Z,42.56
2019-03-25T10:04:25.646Z,41.88
2019-03-25T10:09:26.432Z,43.34
2019-03-25T10:14:28.331Z,41.83
2019-03-25T10:19:27.265Z,41.03
2019-03-25T10:24:27.840Z,41.60
2019-03-25T10:29:23.705Z,41.79
2019-03-25T10:34:20.870Z,41.89
2019-03-25T10:39:17.886Z,40.54
2019-03-25T10:44:15.010Z,39.76
2019-03-25T10:49:11.951Z,43.17
2019-03-25T10:54:11.205Z,40.97
2019-03-25T10:59:08.722Z,41.54
2019-03-25T11:04:06.239Z,41.25
2019-03-25T11:09:05.921Z,41.82
2019-03-25T11:14:03.015Z,41.65
2019-03-25T11:19:18.101Z,41.47
2019-03-25T11:24:15.282Z,41.82
2019-03-25T11:29:12.441Z,41.47
2019-03-25T11:34:09.393Z,41.11
2019-03-25T11:39:08.044Z,39.89
2019-03-25T11:44:05.601Z,40.04
2019-03-25T11:49:02.813Z,40.16
2019-03-25T11:53:59.874Z,40.11
2019-03-25T11:58:58.358Z,41.06
2019-03-25T12:03:56.733Z,42.09
2019-03-25T12:08:53.802Z,42.11
2019-03-25T12:13:50.908Z,41.54
2019-03-25T12:18:48.074Z,43.02
2019-03-25T12:23:46.981Z,43.15
2019-03-25T12:28:46.268Z,42.67
2019-03-25T12:33:43.418Z,43.76
2019-03-25T12:38:41.120Z,42.03
2019-03-25T12:43:38.191Z,42.10
2019-03-25T12:48:37.968Z,40.07
2019-03-25T12:53:35.000Z,39.54
2019-03-25T12:58:32.200Z,38.74
2019-03-25T13:03:32.106Z,38.10
2019-03-25T13:08:33.468Z,36.41
2019-03-25T13:13:31.258Z,37.33
2019-03-25T13:18:28.318Z,36.71
2019-03-25T13:23:26.148Z,37.20
2019-03-25T13:28:24.693Z,34.87
2019-03-25T13:33:21.755Z,35.98
2019-03-25T13:38:18.915Z,36.51
2019-03-25T13:43:16.044Z,36.41
2019-03-25T13:48:14.562Z,36.95
2019-03-25T13:53:11.736Z,35.46
2019-03-25T13:58:08.706Z,36.73
2019-03-25T14:03:06.094Z,36.71
2019-03-25T14:08:03.211Z,37.01
2019-03-25T14:13:00.717Z,37.11
2019-03-25T14:17:59.916Z,36.32
2019-03-25T14:22:57.165Z,36.20
2019-03-25T14:27:54.372Z,35.99
2019-03-25T14:32:52.739Z,36.21
2019-03-25T14:37:49.732Z,37.27
2019-03-25T14:42:46.981Z,37.02
2019-03-25T14:47:43.986Z,37.76
2019-03-25T14:52:41.235Z,37.55
2019-03-25T14:57:40.543Z,38.05
2019-03-25T15:02:37.764Z,38.23
2019-03-25T15:07:34.852Z,37.99
2019-03-25T15:12:32.790Z,38.68
2019-03-25T15:17:29.964Z,38.57
2019-03-25T15:22:27.185Z,38.88
2019-03-25T15:27:24.247Z,38.58
2019-03-25T15:32:21.447Z,38.19
2019-03-25T15:37:18.445Z,38.45
2019-03-25T15:42:15.600Z,39.99
2019-03-25T15:47:12.683Z,39.02
2019-03-25T15:52:09.745Z,39.40
2019-03-25T15:57:06.906Z,39.12
2019-03-25T16:02:04.353Z,39.77
2019-03-25T16:07:01.325Z,40.00
2019-03-25T16:11:58.517Z,40.39
2019-03-25T16:16:55.592Z,40.92
2019-03-25T16:21:54.311Z,41.93
2019-03-25T16:26:51.376Z,41.78
2019-03-25T16:31:48.517Z,42.46
2019-03-25T16:36:45.560Z,43.00
2019-03-25T16:41:42.719Z,42.97
2019-03-25T16:46:39.766Z,43.22
2019-03-25T16:51:37.033Z,44.70
2019-03-25T16:56:34.166Z,46.45
2019-03-25T17:01:31.400Z,48.62
2019-03-25T17:06:28.612Z,51.59
2019-03-25T17:11:25.860Z,52.85
2019-03-25T17:16:22.969Z,54.20
2019-03-25T17:21:20.136Z,54.87
2019-03-25T17:26:18.042Z,55.00
2019-03-25T17:31:20.872Z,55.37
2019-03-25T17:36:13.929Z,56.48
2019-03-25T17:41:11.045Z,57.13
2019-03-25T17:46:08.048Z,56.95
2019-03-25T17:51:05.227Z,57.40
2019-03-25T17:56:02.311Z,57.88
2019-03-25T18:01:03.753Z,57.70
2019-03-25T18:06:00.824Z,58.16
2019-03-25T18:10:58.015Z,58.43
2019-03-25T18:15:55.129Z,57.95
2019-03-25T18:20:52.306Z,57.27
2019-03-25T18:25:49.362Z,57.55
2019-03-25T18:30:47.687Z,58.01
2019-03-25T18:35:44.736Z,57.92
2019-03-25T18:40:42.140Z,58.52
2019-03-25T18:45:39.622Z,58.91
2019-03-25T18:50:36.925Z,58.49
2019-03-25T18:55:36.826Z,59.40
2019-03-25T19:00:35.926Z,60.16
2019-03-25T19:05:33.042Z,59.51
2019-03-25T19:10:30.446Z,58.67
2019-03-25T19:15:27.567Z,57.83
2019-03-25T19:20:25.059Z,58.87
2019-03-25T19:25:22.021Z,58.77
2019-03-25T19:30:19.041Z,58.58
2019-03-25T19:35:16.320Z,59.13
2019-03-25T19:40:13.939Z,59.07
2019-03-25T19:45:12.890Z,59.70
2019-03-25T19:50:10.700Z,60.67
2019-03-25T19:55:07.855Z,60.87
2019-03-25T20:00:07.990Z,60.65
2019-03-25T20:05:07.232Z,60.89
2019-03-25T20:10:08.339Z,60.84
2019-03-25T20:15:06.312Z,61.21
2019-03-25T20:20:05.768Z,60.96
2019-03-25T20:25:06.762Z,60.94
2019-03-25T20:30:09.738Z,60.54
2019-03-25T20:35:07.582Z,61.06
2019-03-25T20:40:10.703Z,60.42
2019-03-25T20:45:08.109Z,60.14
2019-03-25T20:50:05.477Z,60.21
2019-03-25T20:55:06.116Z,59.85
2019-03-25T21:00:07.952Z,60.13
2019-03-25T21:05:07.268Z,59.01
2019-03-25T21:10:06.204Z,59.21
2019-03-25T21:15:06.404Z,59.30
2019-03-25T21:20:06.857Z,59.53
2019-03-25T21:25:05.758Z,59.24
2019-03-25T21:30:05.269Z,59.36
2019-03-25T21:35:03.449Z,59.29
2019-03-25T21:40:00.680Z,59.50
2019-03-25T21:44:58.262Z,60.20
2019-03-25T21:49:57.284Z,60.21
2019-03-25T21:54:54.325Z,60.41
2019-03-25T21:59:53.283Z,60.54
2019-03-25T22:04:50.595Z,60.93
2019-03-25T22:09:49.810Z,60.96
2019-03-25T22:14:46.878Z,61.52
2019-03-25T22:19:44.434Z,61.39
2019-03-25T22:24:41.519Z,61.20
2019-03-25T22:29:38.553Z,60.88
2019-03-25T22:34:35.516Z,60.75
2019-03-25T22:39:32.652Z,60.31
2019-03-25T22:44:29.708Z,59.00
2019-03-25T22:49:27.072Z,59.38
2019-03-25T22:54:24.082Z,59.70
2019-03-25T22:59:21.103Z,59.73
2019-03-25T23:04:18.052Z,60.11
2019-03-25T23:09:15.097Z,60.49
2019-03-25T23:14:12.193Z,60.36
2019-03-25T23:19:09.179Z,60.69
2019-03-25T23:24:06.161Z,60.30
2019-03-25T23:29:03.267Z,60.05
2019-03-25T23:34:00.307Z,60.31
2019-03-25T23:38:57.418Z,60.39
2019-03-25T23:43:54.541Z,60.30
2019-03-25T23:48:51.611Z,60.52
2019-03-25T23:53:48.702Z,60.34
2019-03-25T23:58:46.656Z,60.47
